Time;durP1;ratioP1;P1;durP2;ratioP2;P2;SDS_P1;SDS_P2;PMS_P1;PMS_P2;Temp;Humidity;BMP_temperature;BMP_pressure;BME280_temperature;BME280_humidity;BME280_pressure;Samples;Min_cycle;Max_cycle;Signal;HPM_P1;HPM_P2
2022/03/27 00:01:49;;;;;;;11.63;9.10;;;;;;;;;;5071950;28;20235;-59
2022/03/27 00:04:15;;;;;;;12.33;9.30;;;;;;;;;;5071670;28;20661;-58
2022/03/27 00:06:42;;;;;;;11.80;9.43;;;;;;;;;;5071781;28;20701;-58
2022/03/27 00:09:08;;;;;;;14.37;9.87;;;;;;;;;;5071820;28;20199;-58
2022/03/27 00:11:34;;;;;;;11.30;9.73;;;;;;;;;;5072426;28;20568;-58
2022/03/27 00:14:00;;;;;;;11.33;9.07;;;;;;;;;;5075558;28;20661;-58
2022/03/27 00:16:27;;;;;;;11.67;9.97;;;;;;;;;;5075262;28;20294;-59
2022/03/27 00:18:53;;;;;;;23.13;19.10;;;;;;;;;;5075664;28;20283;-58
2022/03/27 00:21:22;;;;;;;9.90;8.90;;;;;;;;;;5075463;28;20192;-58
2022/03/27 00:23:50;;;;;;;10.37;9.27;;;;;;;;;;5075698;28;20219;-58
2022/03/27 00:26:17;;;;;;;13.60;9.50;;;;;;;;;;5075208;28;20250;-58
2022/03/27 00:28:43;;;;;;;10.40;8.90;;;;;;;;;;5075045;28;20199;-58
2022/03/27 00:31:10;;;;;;;12.93;9.47;;;;;;;;;;5075143;28;20195;-57
2022/03/27 00:33:37;;;;;;;10.37;9.13;;;;;;;;;;5074847;28;20284;-57
2022/03/27 00:36:04;;;;;;;11.93;9.23;;;;;;;;;;5075103;28;20223;-57
2022/03/27 00:38:32;;;;;;;11.10;8.67;;;;;;;;;;5075055;28;20199;-59
2022/03/27 00:41:00;;;;;;;13.83;10.30;;;;;;;;;;5075086;28;20708;-57
2022/03/27 00:43:27;;;;;;;13.00;10.73;;;;;;;;;;5075067;28;20231;-57
2022/03/27 00:45:53;;;;;;;13.07;11.53;;;;;;;;;;5075039;28;20836;-57
2022/03/27 00:48:20;;;;;;;13.70;11.67;;;;;;;;;;5075129;28;20290;-57
2022/03/27 00:50:46;;;;;;;15.50;12.27;;;;;;;;;;5074966;28;20249;-57
2022/03/27 00:53:12;;;;;;;16.13;13.20;;;;;;;;;;5074998;28;20441;-57
2022/03/27 00:55:39;;;;;;;16.10;14.37;;;;;;;;;;5074949;28;20202;-59
2022/03/27 00:58:06;;;;;;;15.97;14.17;;;;;;;;;;5074628;28;20199;-57
2022/03/27 01:00:41;;;;;;;18.30;14.20;;;;;;;;;;5074461;28;20563;-57
2022/03/27 01:03:11;;;;;;;19.23;15.43;;;;;;;;;;5074687;28;20288;-56
2022/03/27 01:05:37;;;;;;;20.30;15.90;;;;;;;;;;5074695;28;20548;-56
2022/03/27 01:08:05;;;;;;;19.60;17.00;;;;;;;;;;5074599;28;20236;-58
2022/03/27 01:10:31;;;;;;;24.07;18.60;;;;;;;;;;5074615;28;20434;-57
2022/03/27 01:12:58;;;;;;;23.50;18.50;;;;;;;;;;5074657;28;20206;-57
2022/03/27 01:15:27;;;;;;;18.53;16.53;;;;;;;;;;5074419;28;20199;-58
2022/03/27 01:17:53;;;;;;;21.67;17.40;;;;;;;;;;5074273;28;20207;-58
2022/03/27 01:20:29;;;;;;;35.10;25.97;;;;;;;;;;5074672;28;20196;-57
2022/03/27 01:22:55;;;;;;;39.00;30.57;;;;;;;;;;5073604;28;20227;-58
2022/03/27 01:25:21;;;;;;;29.27;23.47;;;;;;;;;;5073563;28;20644;-58
2022/03/27 01:27:48;;;;;;;25.23;17.93;;;;;;;;;;5074174;28;20623;-58
2022/03/27 01:30:14;;;;;;;20.40;15.80;;;;;;;;;;5074415;28;20200;-58
2022/03/27 01:32:40;;;;;;;17.23;14.47;;;;;;;;;;5074195;28;20195;-58
2022/03/27 01:35:06;;;;;;;19.53;14.93;;;;;;;;;;5073899;28;20235;-57
2022/03/27 01:37:34;;;;;;;20.53;15.63;;;;;;;;;;5073986;28;20680;-58
2022/03/27 01:40:00;;;;;;;17.53;15.20;;;;;;;;;;5074121;28;20672;-58
2022/03/27 01:42:26;;;;;;;16.83;14.17;;;;;;;;;;5073628;28;20220;-58
2022/03/27 01:44:53;;;;;;;19.60;13.73;;;;;;;;;;5074185;28;20253;-58
2022/03/27 01:47:19;;;;;;;18.23;14.40;;;;;;;;;;5073927;28;20230;-58
2022/03/27 01:49:45;;;;;;;28.97;20.40;;;;;;;;;;5074021;28;20226;-58
2022/03/27 01:52:11;;;;;;;33.23;24.10;;;;;;;;;;5074064;28;20624;-58
2022/03/27 01:54:39;;;;;;;34.17;25.33;;;;;;;;;;5073695;28;20242;-58
2022/03/27 01:57:05;;;;;;;45.27;32.07;;;;;;;;;;5073537;28;20576;-58
2022/03/27 01:59:31;;;;;;;45.20;30.97;;;;;;;;;;5073654;28;20282;-58
2022/03/27 02:01:58;;;;;;;35.00;25.17;;;;;;;;;;5073687;28;20219;-58
2022/03/27 02:04:25;;;;;;;30.83;18.93;;;;;;;;;;5073683;28;20426;-58
2022/03/27 02:06:50;;;;;;;17.67;12.93;;;;;;;;;;5073482;28;20678;-58
2022/03/27 02:09:16;;;;;;;21.30;12.93;;;;;;;;;;5073575;28;20200;-58
2022/03/27 02:11:44;;;;;;;14.60;11.87;;;;;;;;;;5073522;28;20282;-58
2022/03/27 02:14:10;;;;;;;16.60;12.03;;;;;;;;;;5072976;28;20712;-58
2022/03/27 02:16:36;;;;;;;14.67;11.73;;;;;;;;;;5073172;28;20207;-58
2022/03/27 02:19:06;;;;;;;17.80;11.47;;;;;;;;;;5073426;28;20204;-58
2022/03/27 02:21:32;;;;;;;16.53;11.40;;;;;;;;;;5073113;28;20678;-58
2022/03/27 02:23:58;;;;;;;15.20;11.20;;;;;;;;;;5073220;28;20215;-58
2022/03/27 02:26:24;;;;;;;17.20;12.03;;;;;;;;;;5072743;28;20737;-58
2022/03/27 02:28:51;;;;;;;24.37;16.87;;;;;;;;;;5073094;28;20203;-58
2022/03/27 02:31:19;;;;;;;25.83;18.33;;;;;;;;;;5073072;28;20216;-58
2022/03/27 02:33:45;;;;;;;19.23;15.07;;;;;;;;;;5072829;28;20569;-58
2022/03/27 02:36:11;;;;;;;17.20;13.27;;;;;;;;;;5073050;28;20654;-58
2022/03/27 02:38:37;;;;;;;13.77;12.30;;;;;;;;;;5072860;28;20299;-57
2022/03/27 02:41:04;;;;;;;16.47;11.30;;;;;;;;;;5072898;28;20647;-58
2022/03/27 02:43:30;;;;;;;15.90;11.33;;;;;;;;;;5072852;28;21080;-58
2022/03/27 02:45:58;;;;;;;12.50;10.43;;;;;;;;;;5072754;28;20211;-57
2022/03/27 02:48:23;;;;;;;13.83;10.33;;;;;;;;;;5072790;28;20287;-58
2022/03/27 02:50:49;;;;;;;14.57;11.30;;;;;;;;;;5072620;28;20295;-58
2022/03/27 02:53:15;;;;;;;14.33;10.83;;;;;;;;;;5072687;28;20194;-58
2022/03/27 02:55:41;;;;;;;26.97;17.63;;;;;;;;;;5072515;28;20199;-58
2022/03/27 02:58:08;;;;;;;36.37;22.37;;;;;;;;;;5072532;28;20601;-58
2022/03/27 03:00:34;;;;;;;44.07;26.63;;;;;;;;;;5072317;28;20302;-58
2022/03/27 03:03:01;;;;;;;33.17;22.23;;;;;;;;;;5072598;28;20232;-58
2022/03/27 03:05:27;;;;;;;34.27;22.63;;;;;;;;;;5072374;28;20285;-58
2022/03/27 03:07:54;;;;;;;38.83;24.43;;;;;;;;;;5072572;28;20444;-58
2022/03/27 03:10:20;;;;;;;31.67;20.00;;;;;;;;;;5072389;28;20271;-58
2022/03/27 03:12:46;;;;;;;26.13;18.33;;;;;;;;;;5072312;28;20253;-58
2022/03/27 03:15:12;;;;;;;18.27;13.17;;;;;;;;;;5072378;28;20484;-58
2022/03/27 03:17:38;;;;;;;19.23;13.87;;;;;;;;;;5072293;28;20434;-58
2022/03/27 03:20:07;;;;;;;19.65;15.85;;;;;;;;;;5070947;28;20411;-58
2022/03/27 03:22:34;;;;;;;15.93;12.97;;;;;;;;;;5072066;28;20220;-58
2022/03/27 03:25:00;;;;;;;18.77;12.70;;;;;;;;;;5072138;28;20235;-58
2022/03/27 03:27:26;;;;;;;13.23;11.80;;;;;;;;;;5072263;28;20596;-58
2022/03/27 03:29:52;;;;;;;15.73;12.63;;;;;;;;;;5072158;28;20257;-59
2022/03/27 03:32:20;;;;;;;17.80;13.57;;;;;;;;;;5071984;28;20187;-59
2022/03/27 03:34:46;;;;;;;18.27;13.60;;;;;;;;;;5072017;28;20207;-58
2022/03/27 03:37:14;;;;;;;13.40;12.00;;;;;;;;;;5072194;28;20442;-58
2022/03/27 03:39:40;;;;;;;17.97;13.63;;;;;;;;;;5071977;28;20218;-58
2022/03/27 03:42:06;;;;;;;21.33;14.20;;;;;;;;;;5072031;28;20456;-58
2022/03/27 03:44:32;;;;;;;20.43;14.47;;;;;;;;;;5072002;28;20199;-58
2022/03/27 03:46:58;;;;;;;18.83;13.33;;;;;;;;;;5075304;28;20869;-58
2022/03/27 03:49:24;;;;;;;17.63;15.27;;;;;;;;;;5078615;28;20199;-58
2022/03/27 03:51:50;;;;;;;15.03;12.70;;;;;;;;;;5078560;28;20797;-58
2022/03/27 03:54:18;;;;;;;17.03;14.20;;;;;;;;;;5078439;28;20465;-58
2022/03/27 03:56:44;;;;;;;14.77;13.00;;;;;;;;;;5078554;28;20445;-58
2022/03/27 03:59:10;;;;;;;17.30;12.83;;;;;;;;;;5078617;28;20475;-59
2022/03/27 04:01:36;;;;;;;16.57;13.23;;;;;;;;;;5078276;28;20191;-58
2022/03/27 04:04:02;;;;;;;17.70;12.63;;;;;;;;;;5078286;28;20235;-58
2022/03/27 04:06:28;;;;;;;16.73;12.80;;;;;;;;;;5078490;28;20215;-58
2022/03/27 04:08:53;;;;;;;14.23;11.70;;;;;;;;;;5078610;28;20199;-58
2022/03/27 04:11:21;;;;;;;14.03;12.50;;;;;;;;;;5078002;28;20274;-58
2022/03/27 04:13:47;;;;;;;17.10;13.43;;;;;;;;;;5077467;28;20202;-58
2022/03/27 04:16:13;;;;;;;16.47;12.90;;;;;;;;;;5078282;28;20509;-58
2022/03/27 04:18:39;;;;;;;17.03;13.33;;;;;;;;;;5078280;28;20196;-58
2022/03/27 04:21:06;;;;;;;16.00;12.30;;;;;;;;;;5078481;28;21121;-58
2022/03/27 04:23:32;;;;;;;20.83;14.70;;;;;;;;;;5078198;28;20477;-58
2022/03/27 04:25:57;;;;;;;19.10;15.17;;;;;;;;;;5078252;28;20480;-59
2022/03/27 04:28:25;;;;;;;19.60;15.30;;;;;;;;;;5078290;28;20203;-58
2022/03/27 04:30:51;;;;;;;18.10;14.50;;;;;;;;;;5078104;28;20204;-58
2022/03/27 04:33:18;;;;;;;19.17;14.83;;;;;;;;;;5078138;28;20811;-58
2022/03/27 04:35:45;;;;;;;18.47;14.90;;;;;;;;;;5078021;28;20459;-58
2022/03/27 04:38:11;;;;;;;20.17;14.73;;;;;;;;;;5078247;28;20274;-58
2022/03/27 04:40:37;;;;;;;20.10;15.27;;;;;;;;;;5078159;28;20499;-58
2022/03/27 04:43:03;;;;;;;23.20;16.40;;;;;;;;;;5078080;28;20474;-59
2022/03/27 04:45:31;;;;;;;22.57;15.93;;;;;;;;;;5078103;28;20195;-58
2022/03/27 04:47:57;;;;;;;21.57;16.23;;;;;;;;;;5078187;28;20449;-59
2022/03/27 04:50:23;;;;;;;25.97;16.97;;;;;;;;;;5078146;28;20931;-58
2022/03/27 04:52:49;;;;;;;25.83;18.40;;;;;;;;;;5077980;28;20438;-59
2022/03/27 04:55:15;;;;;;;26.00;19.17;;;;;;;;;;5078012;28;20195;-59
2022/03/27 04:57:42;;;;;;;28.17;19.23;;;;;;;;;;5076416;28;20202;-58
2022/03/27 05:00:11;;;;;;;27.23;19.90;;;;;;;;;;5074394;28;20444;-58
2022/03/27 05:02:39;;;;;;;25.30;19.13;;;;;;;;;;5074640;28;20219;-58
2022/03/27 05:05:06;;;;;;;26.43;17.03;;;;;;;;;;5074847;28;20476;-58
2022/03/27 05:07:32;;;;;;;23.87;17.90;;;;;;;;;;5074539;28;20438;-58
2022/03/27 05:09:58;;;;;;;23.57;16.67;;;;;;;;;;5074886;28;20620;-58
2022/03/27 05:12:24;;;;;;;25.47;17.27;;;;;;;;;;5074561;28;20846;-58
2022/03/27 05:14:50;;;;;;;22.63;15.93;;;;;;;;;;5074393;28;20931;-58
2022/03/27 05:17:16;;;;;;;22.90;16.27;;;;;;;;;;5074684;28;20430;-59
2022/03/27 05:19:44;;;;;;;23.13;16.40;;;;;;;;;;5074426;28;20253;-58
2022/03/27 05:22:10;;;;;;;18.30;15.03;;;;;;;;;;5074389;28;20219;-58
2022/03/27 05:24:36;;;;;;;25.93;16.50;;;;;;;;;;5073996;28;21027;-58
2022/03/27 05:27:02;;;;;;;22.37;16.80;;;;;;;;;;5074651;28;20207;-58
2022/03/27 05:29:28;;;;;;;27.57;17.13;;;;;;;;;;5074401;28;20196;-58
2022/03/27 05:31:54;;;;;;;28.23;18.93;;;;;;;;;;5073882;28;20517;-58
2022/03/27 05:34:20;;;;;;;24.67;17.40;;;;;;;;;;5074193;28;20541;-58
2022/03/27 05:36:48;;;;;;;28.80;18.27;;;;;;;;;;5074157;28;20908;-59
2022/03/27 05:39:14;;;;;;;29.63;20.60;;;;;;;;;;5074197;28;20200;-58
2022/03/27 05:41:40;;;;;;;30.83;20.00;;;;;;;;;;5073922;28;20760;-58
2022/03/27 05:44:06;;;;;;;30.93;20.63;;;;;;;;;;5073755;28;20494;-58
2022/03/27 05:46:32;;;;;;;29.97;19.83;;;;;;;;;;5073830;28;20688;-58
2022/03/27 05:48:58;;;;;;;30.37;20.70;;;;;;;;;;5074116;28;20241;-58
2022/03/27 05:51:24;;;;;;;30.97;21.17;;;;;;;;;;5073467;28;20446;-58
2022/03/27 05:53:51;;;;;;;32.50;20.37;;;;;;;;;;5073491;28;20729;-59
2022/03/27 05:56:17;;;;;;;30.87;20.57;;;;;;;;;;5073772;28;20434;-58
2022/03/27 05:58:43;;;;;;;30.53;19.97;;;;;;;;;;5073648;28;20444;-58
2022/03/27 06:01:09;;;;;;;29.90;19.53;;;;;;;;;;5073765;28;20680;-58
2022/03/27 06:03:35;;;;;;;30.43;20.60;;;;;;;;;;5073530;28;20314;-59
2022/03/27 06:06:02;;;;;;;24.87;17.93;;;;;;;;;;5073687;28;20283;-58
2022/03/27 06:08:28;;;;;;;24.63;17.70;;;;;;;;;;5073634;28;20230;-58
2022/03/27 06:10:56;;;;;;;23.37;16.33;;;;;;;;;;5073019;28;20446;-58
2022/03/27 06:13:22;;;;;;;23.37;17.17;;;;;;;;;;5073381;28;20227;-58
2022/03/27 06:15:49;;;;;;;24.30;17.20;;;;;;;;;;5073169;28;20469;-58
2022/03/27 06:18:16;;;;;;;20.40;16.20;;;;;;;;;;5073296;28;20712;-58
2022/03/27 06:20:42;;;;;;;22.67;16.93;;;;;;;;;;5073167;28;20917;-59
2022/03/27 06:23:08;;;;;;;20.20;13.87;;;;;;;;;;5072734;28;20485;-59
2022/03/27 06:25:34;;;;;;;22.10;14.07;;;;;;;;;;5072578;28;20269;-59
2022/03/27 06:28:02;;;;;;;20.37;14.50;;;;;;;;;;5073252;28;20203;-59
2022/03/27 06:30:29;;;;;;;23.77;16.50;;;;;;;;;;5072855;28;20686;-59
2022/03/27 06:32:55;;;;;;;22.73;15.23;;;;;;;;;;5073080;28;20472;-58
2022/03/27 06:35:23;;;;;;;20.10;15.73;;;;;;;;;;5072987;28;20928;-59
2022/03/27 06:37:49;;;;;;;22.03;15.17;;;;;;;;;;5072777;28;20441;-59
2022/03/27 06:40:16;;;;;;;19.30;15.27;;;;;;;;;;5073095;28;20445;-59
2022/03/27 06:42:45;;;;;;;27.33;20.23;;;;;;;;;;5072826;28;20477;-58
2022/03/27 06:45:12;;;;;;;33.50;22.67;;;;;;;;;;5072624;28;20971;-58
2022/03/27 06:47:38;;;;;;;36.80;23.07;;;;;;;;;;5072630;28;20446;-58
2022/03/27 06:50:05;;;;;;;39.87;24.03;;;;;;;;;;5072769;28;20196;-59
2022/03/27 06:52:32;;;;;;;36.77;24.83;;;;;;;;;;5072576;28;20444;-58
2022/03/27 06:54:58;;;;;;;40.97;24.97;;;;;;;;;;5072619;28;20242;-58
2022/03/27 06:57:24;;;;;;;38.20;24.50;;;;;;;;;;5072672;28;20441;-58
2022/03/27 07:05:22;;;;;;;34.77;24.00;;;;;;;;;;5072394;28;20425;-55
2022/03/27 07:07:48;;;;;;;36.97;24.57;;;;;;;;;;5072412;28;20449;-58
2022/03/27 07:10:16;;;;;;;36.77;25.07;;;;;;;;;;5072595;28;20249;-56
2022/03/27 07:12:42;;;;;;;38.17;25.10;;;;;;;;;;5072024;28;20912;-56
2022/03/27 07:15:08;;;;;;;35.83;24.83;;;;;;;;;;5072431;28;20462;-56
2022/03/27 07:17:44;;;;;;;33.17;22.80;;;;;;;;;;5072243;28;20199;-56
2022/03/27 07:20:11;;;;;;;37.80;23.43;;;;;;;;;;5072387;28;20199;-57
2022/03/27 07:22:37;;;;;;;35.00;23.77;;;;;;;;;;5071395;28;20474;-56
2022/03/27 07:25:03;;;;;;;40.33;25.10;;;;;;;;;;5072180;28;20878;-56
2022/03/27 07:27:31;;;;;;;36.90;22.80;;;;;;;;;;5072389;28;20195;-56
2022/03/27 07:29:57;;;;;;;39.77;20.47;;;;;;;;;;5072266;28;20250;-57
2022/03/27 07:32:23;;;;;;;34.57;21.00;;;;;;;;;;5072050;28;20449;-56
2022/03/27 07:34:50;;;;;;;41.00;21.30;;;;;;;;;;5071706;28;20225;-56
2022/03/27 07:37:16;;;;;;;30.40;19.97;;;;;;;;;;5072339;28;20199;-55
2022/03/27 07:39:42;;;;;;;31.27;20.40;;;;;;;;;;5072049;28;20526;-55
2022/03/27 07:42:08;;;;;;;37.80;25.27;;;;;;;;;;5070987;28;20408;-55
2022/03/27 07:44:34;;;;;;;32.37;20.47;;;;;;;;;;5071944;28;20196;-56
2022/03/27 07:47:01;;;;;;;30.70;20.90;;;;;;;;;;5067890;28;20205;-56
2022/03/27 07:49:27;;;;;;;37.47;21.33;;;;;;;;;;5071329;28;20195;-56
2022/03/27 07:51:54;;;;;;;42.97;26.23;;;;;;;;;;5070644;28;20488;-56
2022/03/27 07:54:21;;;;;;;31.87;22.63;;;;;;;;;;5071864;28;20192;-56
2022/03/27 07:56:47;;;;;;;35.10;25.60;;;;;;;;;;5070545;28;20990;-55
2022/03/27 07:59:13;;;;;;;31.57;21.50;;;;;;;;;;5071907;28;20199;-56
2022/03/27 08:01:38;;;;;;;31.07;19.77;;;;;;;;;;5071747;28;20529;-56
2022/03/27 08:04:05;;;;;;;38.67;20.77;;;;;;;;;;5071802;28;20219;-55
2022/03/27 08:06:36;;;;;;;34.67;20.83;;;;;;;;;;5070684;28;20213;-55
2022/03/27 08:09:03;;;;;;;38.47;20.03;;;;;;;;;;5071840;28;20204;-55
2022/03/27 08:11:29;;;;;;;24.93;18.70;;;;;;;;;;5071974;28;20294;-56
2022/03/27 08:13:55;;;;;;;31.67;20.90;;;;;;;;;;5071627;28;20200;-56
2022/03/27 08:16:21;;;;;;;29.77;18.87;;;;;;;;;;5071718;28;20295;-56
2022/03/27 08:18:47;;;;;;;34.53;20.00;;;;;;;;;;5071578;28;20196;-56
2022/03/27 08:21:13;;;;;;;26.23;17.90;;;;;;;;;;5071782;28;20195;-56
2022/03/27 08:23:39;;;;;;;27.03;17.63;;;;;;;;;;5071417;28;20239;-56
2022/03/27 08:28:51;;;;;;;24.77;17.67;;;;;;;;;;5071532;28;20325;-57
2022/03/27 08:31:17;;;;;;;19.97;15.83;;;;;;;;;;5071524;28;20282;-56
2022/03/27 08:33:44;;;;;;;25.90;16.37;;;;;;;;;;5074184;28;20705;-56
2022/03/27 08:36:10;;;;;;;26.57;17.63;;;;;;;;;;5074864;28;20592;-56
2022/03/27 08:38:37;;;;;;;19.03;15.40;;;;;;;;;;5075113;28;20662;-56
2022/03/27 08:41:04;;;;;;;22.00;15.47;;;;;;;;;;5075242;28;20257;-56
2022/03/27 08:43:33;;;;;;;21.00;14.63;;;;;;;;;;5075082;28;20250;-57
2022/03/27 08:46:00;;;;;;;27.50;16.67;;;;;;;;;;5075199;28;20206;-56
2022/03/27 08:48:30;;;;;;;25.67;16.23;;;;;;;;;;5075007;28;20203;-56
2022/03/27 08:51:02;;;;;;;17.20;14.20;;;;;;;;;;5074886;28;20205;-57
2022/03/27 08:53:30;;;;;;;23.10;15.17;;;;;;;;;;5074786;28;20591;-57
2022/03/27 08:55:57;;;;;;;18.80;15.47;;;;;;;;;;5074771;28;20274;-58
2022/03/27 08:58:27;;;;;;;23.47;16.30;;;;;;;;;;5074844;28;20202;-57
2022/03/27 09:00:54;;;;;;;22.87;15.37;;;;;;;;;;5074614;28;20227;-57
2022/03/27 09:03:21;;;;;;;22.80;17.00;;;;;;;;;;5074855;28;20246;-57
2022/03/27 09:05:47;;;;;;;22.90;16.67;;;;;;;;;;5074644;28;20206;-57
2022/03/27 09:08:13;;;;;;;23.47;17.27;;;;;;;;;;5074795;28;20218;-57
2022/03/27 09:10:40;;;;;;;23.73;17.03;;;;;;;;;;5074539;28;20215;-58
2022/03/27 09:13:09;;;;;;;22.53;16.07;;;;;;;;;;5074695;28;20208;-57
2022/03/27 09:15:35;;;;;;;24.17;18.00;;;;;;;;;;5074439;28;20196;-57
2022/03/27 09:18:04;;;;;;;25.30;15.40;;;;;;;;;;5074553;28;20192;-57
2022/03/27 09:20:34;;;;;;;21.20;14.43;;;;;;;;;;5074592;28;20306;-58
2022/03/27 09:23:12;;;;;;;21.80;15.77;;;;;;;;;;5072527;28;20220;-59
2022/03/27 09:25:48;;;;;;;29.23;18.50;;;;;;;;;;5073728;28;20239;-59
2022/03/27 09:28:21;;;;;;;26.97;20.20;;;;;;;;;;5074387;28;20208;-57
2022/03/27 09:30:47;;;;;;;25.60;17.13;;;;;;;;;;5073899;28;20674;-57
2022/03/27 09:33:30;;;;;;;20.23;15.43;;;;;;;;;;5074191;28;20631;-57
2022/03/27 09:36:03;;;;;;;25.87;17.93;;;;;;;;;;5074147;28;20204;-57
2022/03/27 09:38:29;;;;;;;20.37;16.17;;;;;;;;;;5074091;28;20204;-58
2022/03/27 09:40:55;;;;;;;22.37;16.30;;;;;;;;;;5073493;28;20218;-58
2022/03/27 09:43:22;;;;;;;21.37;15.07;;;;;;;;;;5073814;28;20288;-58
2022/03/27 09:45:55;;;;;;;23.43;15.67;;;;;;;;;;5072869;28;20238;-58
2022/03/27 09:48:23;;;;;;;22.47;15.90;;;;;;;;;;5073692;28;20203;-57
2022/03/27 09:50:51;;;;;;;22.63;15.93;;;;;;;;;;5073395;28;20221;-58
2022/03/27 09:53:22;;;;;;;23.60;18.45;;;;;;;;;;5072106;28;20483;-58
2022/03/27 09:55:52;;;;;;;25.70;16.87;;;;;;;;;;5073309;28;20199;-58
2022/03/27 09:58:32;;;;;;;24.50;15.73;;;;;;;;;;5073622;28;20227;-59
2022/03/27 10:01:07;;;;;;;20.53;14.33;;;;;;;;;;5073551;28;20209;-62
2022/03/27 10:03:34;;;;;;;22.50;14.87;;;;;;;;;;5073367;28;20226;-58
2022/03/27 10:06:01;;;;;;;20.57;14.83;;;;;;;;;;5069738;28;20200;-60
2022/03/27 10:08:27;;;;;;;19.57;14.57;;;;;;;;;;5072939;28;20206;-58
2022/03/27 10:10:55;;;;;;;21.17;15.20;;;;;;;;;;5072960;28;20200;-58
2022/03/27 10:13:22;;;;;;;27.97;22.60;;;;;;;;;;5073189;28;20191;-59
2022/03/27 10:15:54;;;;;;;17.73;13.83;;;;;;;;;;5072881;28;20196;-58
2022/03/27 10:18:21;;;;;;;16.00;13.80;;;;;;;;;;5073149;28;20221;-59
2022/03/27 10:20:50;;;;;;;18.10;14.07;;;;;;;;;;5072958;28;20207;-57
2022/03/27 10:23:19;;;;;;;22.70;13.73;;;;;;;;;;5073109;28;20273;-58
2022/03/27 10:25:46;;;;;;;22.93;14.60;;;;;;;;;;5072759;28;20259;-58
2022/03/27 10:28:12;;;;;;;19.13;14.17;;;;;;;;;;5073113;28;20245;-59
2022/03/27 10:30:38;;;;;;;22.73;14.73;;;;;;;;;;5072837;28;20206;-58
2022/03/27 10:33:07;;;;;;;20.23;14.57;;;;;;;;;;5073073;28;20563;-59
2022/03/27 10:35:37;;;;;;;21.63;15.70;;;;;;;;;;5072861;28;20200;-58
2022/03/27 10:38:09;;;;;;;20.23;14.57;;;;;;;;;;5072877;28;20204;-58
2022/03/27 10:40:39;;;;;;;20.17;14.53;;;;;;;;;;5072863;28;20200;-59
2022/03/27 10:43:10;;;;;;;19.53;14.03;;;;;;;;;;5072580;28;20318;-58
2022/03/27 10:45:36;;;;;;;24.93;16.47;;;;;;;;;;5072330;28;20203;-59
2022/03/27 10:48:10;;;;;;;20.90;14.73;;;;;;;;;;5072566;28;20295;-60
2022/03/27 10:50:44;;;;;;;17.20;13.63;;;;;;;;;;5072450;28;20607;-60
2022/03/27 10:53:12;;;;;;;22.67;14.50;;;;;;;;;;5072630;28;20206;-59
2022/03/27 10:55:40;;;;;;;23.13;16.73;;;;;;;;;;5071709;28;20204;-58
2022/03/27 10:58:21;;;;;;;20.20;15.17;;;;;;;;;;5072092;28;20320;-59
2022/03/27 11:00:47;;;;;;;23.23;16.23;;;;;;;;;;5069611;28;20210;-61
2022/03/27 11:03:33;;;;;;;18.47;14.50;;;;;;;;;;5072280;28;20227;-60
2022/03/27 11:05:59;;;;;;;15.00;11.07;;;;;;;;;;5071964;28;20249;-61
2022/03/27 11:08:44;;;;;;;13.00;10.90;;;;;;;;;;5072220;28;20670;-60
2022/03/27 11:11:12;;;;;;;16.43;11.47;;;;;;;;;;5072289;28;20195;-59
2022/03/27 11:13:39;;;;;;;13.17;10.97;;;;;;;;;;5070457;28;20674;-58
2022/03/27 11:16:05;;;;;;;17.50;13.50;;;;;;;;;;5071854;28;20195;-59
2022/03/27 11:18:35;;;;;;;19.60;13.83;;;;;;;;;;5071186;28;20204;-62
2022/03/27 11:21:01;;;;;;;21.03;15.13;;;;;;;;;;5072231;28;20210;-60
2022/03/27 11:23:35;;;;;;;19.67;14.50;;;;;;;;;;5072208;28;20270;-58
2022/03/27 11:26:02;;;;;;;19.63;14.40;;;;;;;;;;5072196;28;20258;-61
2022/03/27 11:28:47;;;;;;;18.60;16.02;;;;;;;;;;5071011;28;20519;-58
2022/03/27 11:31:21;;;;;;;18.60;14.90;;;;;;;;;;5072320;28;20198;-58
2022/03/27 11:34:07;;;;;;;21.60;14.93;;;;;;;;;;5068669;28;20191;-58
2022/03/27 11:36:34;;;;;;;20.47;14.20;;;;;;;;;;5071953;28;20241;-59
2022/03/27 11:39:02;;;;;;;19.60;14.70;;;;;;;;;;5072073;28;20208;-59
2022/03/27 11:41:34;;;;;;;23.30;15.43;;;;;;;;;;5069926;28;20204;-60
2022/03/27 11:44:15;;;;;;;23.00;18.97;;;;;;;;;;5071849;28;20231;-58
2022/03/27 11:46:58;;;;;;;21.70;15.33;;;;;;;;;;5071673;28;20205;-57
2022/03/27 11:49:35;;;;;;;17.83;14.23;;;;;;;;;;5069198;28;20207;-59
2022/03/27 11:52:05;;;;;;;22.63;13.80;;;;;;;;;;5072324;28;20286;-57
2022/03/27 11:54:31;;;;;;;16.93;13.40;;;;;;;;;;5071937;28;20196;-60
2022/03/27 11:56:58;;;;;;;16.67;13.03;;;;;;;;;;5071990;28;20211;-57
2022/03/27 11:59:28;;;;;;;21.37;14.13;;;;;;;;;;5071821;28;20241;-59
2022/03/27 12:01:57;;;;;;;17.33;14.20;;;;;;;;;;5071594;28;20219;-59
2022/03/27 12:04:23;;;;;;;16.97;13.13;;;;;;;;;;5071638;28;20656;-60
2022/03/27 12:06:54;;;;;;;17.90;13.77;;;;;;;;;;5071688;28;20191;-58
2022/03/27 12:09:24;;;;;;;23.80;16.23;;;;;;;;;;5075653;28;20264;-58
2022/03/27 12:12:03;;;;;;;23.20;17.20;;;;;;;;;;5075849;28;20534;-58
2022/03/27 12:14:29;;;;;;;24.87;17.00;;;;;;;;;;5076015;28;20744;-56
2022/03/27 12:16:56;;;;;;;25.83;18.67;;;;;;;;;;5075728;28;20287;-57
2022/03/27 12:19:22;;;;;;;23.10;16.97;;;;;;;;;;5075274;28;20195;-57
2022/03/27 12:21:48;;;;;;;28.83;18.23;;;;;;;;;;5075531;28;20253;-58
2022/03/27 12:24:16;;;;;;;30.37;20.37;;;;;;;;;;5075408;28;20231;-59
2022/03/27 12:29:40;;;;;;;26.83;18.83;;;;;;;;;;5075004;28;20190;-56
2022/03/27 12:32:08;;;;;;;27.60;18.87;;;;;;;;;;5075490;28;20567;-55
2022/03/27 12:34:39;;;;;;;23.20;17.87;;;;;;;;;;5075282;28;20204;-59
2022/03/27 12:37:10;;;;;;;25.50;18.77;;;;;;;;;;5075434;28;20192;-59
2022/03/27 12:39:37;;;;;;;28.90;20.97;;;;;;;;;;5075150;28;20200;-59
2022/03/27 12:42:03;;;;;;;28.57;20.40;;;;;;;;;;5075079;28;20227;-59
2022/03/27 12:44:44;;;;;;;32.13;22.60;;;;;;;;;;5074922;28;20228;-59
2022/03/27 12:47:11;;;;;;;30.37;21.07;;;;;;;;;;5074714;28;20209;-59
2022/03/27 12:49:47;;;;;;;30.73;20.77;;;;;;;;;;5074945;28;20207;-59
2022/03/27 12:52:13;;;;;;;30.70;21.47;;;;;;;;;;5074362;28;20199;-60
2022/03/27 12:54:54;;;;;;;32.20;21.03;;;;;;;;;;5074987;28;20195;-59
2022/03/27 12:57:20;;;;;;;35.53;24.10;;;;;;;;;;5070278;28;20641;-58
2022/03/27 12:59:46;;;;;;;28.57;21.73;;;;;;;;;;5071865;28;20199;-57
2022/03/27 13:02:24;;;;;;;29.07;21.33;;;;;;;;;;5074783;28;20234;-57
2022/03/27 13:04:56;;;;;;;36.03;24.43;;;;;;;;;;5074797;28;20237;-58
2022/03/27 13:07:49;;;;;;;36.87;23.83;;;;;;;;;;5074905;28;20207;-57
2022/03/27 13:10:15;;;;;;;34.03;22.83;;;;;;;;;;5074819;28;20229;-60
2022/03/27 13:12:41;;;;;;;30.73;23.10;;;;;;;;;;5074609;28;20207;-58
2022/03/27 13:15:08;;;;;;;29.07;22.40;;;;;;;;;;5074737;28;20235;-59
2022/03/27 13:17:35;;;;;;;31.37;23.33;;;;;;;;;;5074453;28;20712;-59
2022/03/27 13:20:01;;;;;;;32.30;23.77;;;;;;;;;;5073098;28;20208;-61
2022/03/27 13:22:27;;;;;;;31.37;23.93;;;;;;;;;;5074308;28;20242;-62
2022/03/27 13:24:53;;;;;;;32.33;24.23;;;;;;;;;;5073912;28;20239;-61
2022/03/27 13:27:19;;;;;;;34.13;24.37;;;;;;;;;;5074134;28;20729;-62
2022/03/27 13:29:45;;;;;;;33.03;25.27;;;;;;;;;;5074026;28;20607;-62
2022/03/27 13:32:11;;;;;;;31.53;24.33;;;;;;;;;;5074129;28;20196;-61
2022/03/27 13:34:38;;;;;;;32.63;24.33;;;;;;;;;;5073929;28;20198;-62
2022/03/27 13:37:05;;;;;;;34.00;24.30;;;;;;;;;;5074282;28;20580;-63
2022/03/27 13:39:31;;;;;;;32.43;24.23;;;;;;;;;;5074002;28;20220;-62
2022/03/27 13:44:42;;;;;;;30.83;22.33;;;;;;;;;;5070011;28;20301;-63
2022/03/27 13:47:09;;;;;;;27.00;22.40;;;;;;;;;;5073795;28;20550;-61
2022/03/27 13:49:35;;;;;;;27.43;22.33;;;;;;;;;;5073773;28;20197;-62
2022/03/27 13:52:03;;;;;;;28.23;22.73;;;;;;;;;;5073913;28;20200;-61
2022/03/27 13:54:29;;;;;;;26.93;20.47;;;;;;;;;;5074077;28;20619;-62
2022/03/27 13:56:55;;;;;;;26.17;20.43;;;;;;;;;;5073847;28;20734;-57
2022/03/27 13:59:23;;;;;;;22.87;19.40;;;;;;;;;;5073472;28;20196;-56
2022/03/27 14:01:49;;;;;;;24.83;20.33;;;;;;;;;;5073606;28;20578;-58
2022/03/27 14:04:16;;;;;;;20.53;16.77;;;;;;;;;;5073603;28;20310;-59
2022/03/27 14:06:43;;;;;;;20.57;16.27;;;;;;;;;;5073230;28;20631;-62
2022/03/27 14:09:10;;;;;;;21.73;18.30;;;;;;;;;;5071353;28;20200;-58
2022/03/27 14:11:37;;;;;;;25.87;20.07;;;;;;;;;;5073487;28;20242;-59
2022/03/27 14:14:05;;;;;;;17.63;14.03;;;;;;;;;;5069646;28;20189;-57
2022/03/27 14:16:31;;;;;;;18.20;13.83;;;;;;;;;;5071636;28;20205;-56
2022/03/27 14:18:58;;;;;;;15.90;12.60;;;;;;;;;;5073069;28;20191;-57
2022/03/27 14:21:24;;;;;;;17.67;11.33;;;;;;;;;;5073093;28;20197;-57
2022/03/27 14:23:50;;;;;;;14.60;12.53;;;;;;;;;;5072647;28;20246;-57
2022/03/27 14:26:17;;;;;;;14.20;12.00;;;;;;;;;;5071325;28;20282;-57
2022/03/27 14:28:43;;;;;;;13.10;11.60;;;;;;;;;;5071027;28;20636;-56
2022/03/27 14:31:09;;;;;;;16.07;12.67;;;;;;;;;;5072740;28;20628;-59
2022/03/27 14:33:35;;;;;;;14.00;11.57;;;;;;;;;;5072931;28;20195;-58
2022/03/27 14:36:01;;;;;;;14.30;11.07;;;;;;;;;;5072866;28;20200;-59